Lomira, Wisconsin
Current Conditions -  °F | °C
As of 9:53 PM on Wednesday 28 Jan 2015 (Local Time) from KFLD Reporting Station
Few Clouds Few Clouds  
Wind Chill: 21°   Ceiling: Unl
Heat Index: 30°   Visibility: 10mi
Dew Point: 22°   Wind: 12mph
Humidity: 72%   Direction: 170°S
Pressure: 29.84"   Gusts: NA
Location:  43.59°N, 88.44°W
Report Text: KFLD 290353Z AUTO 17010KT 10SM FEW090 M01/M06 A2984 RMK AO2 SLP117 T10111056
Loading
Personal Weather Stations






























Interactive Weather Map New forecast layout! Learn more

10-Day Weather Forecast

Advertisements
Track Severe Weather on mobile